Ossett, United Kingdom
Current Conditions -  °F | °C
As of 12:50 AM on Tuesday 27 Jan 2015 (Local Time) from EGNM Reporting Station
Clear Clear  
Wind Chill: 29°   Ceiling: Unl
Heat Index: 37°   Visibility: 6mi
Dew Point: 36°   Wind: 14mph
Humidity: 93%   Direction: 290°WNW
Pressure: 30.27"   Gusts: NA
Location:  53.68°N, 1.58°W
Report Text: EGNM 270050Z 29012KT CAVOK 03/02 Q1025
Loading
Personal Weather Stations






























Interactive Weather Map New forecast layout! Learn more

10-Day Weather Forecast

Advertisements
Track Severe Weather on mobile